createdAt,value
2018-08-19T00:00:08.625Z,101917.33
2018-08-19T00:01:12.953Z,101915.63
2018-08-19T00:02:17.378Z,101921.02
2018-08-19T00:03:21.773Z,101917.47
2018-08-19T00:04:25.954Z,101916.62
2018-08-19T00:05:30.386Z,101914.42
2018-08-19T00:06:35.103Z,101917.62
2018-08-19T00:07:39.289Z,101914.11
2018-08-19T00:08:43.719Z,101917.80
2018-08-19T00:09:47.939Z,101913.40
2018-08-19T00:11:01.470Z,101911.20
2018-08-19T00:12:05.833Z,101912.38
2018-08-19T00:13:11.642Z,101907.47
2018-08-19T00:14:34.622Z,101904.78
2018-08-19T00:15:39.778Z,101906.80
2018-08-19T00:16:44.079Z,101901.91
2018-08-19T00:17:48.347Z,101901.05
2018-08-19T00:18:52.592Z,101902.41
2018-08-19T00:19:56.899Z,101906.45
2018-08-19T00:21:01.207Z,101904.78
2018-08-19T00:22:05.425Z,101901.73
2018-08-19T00:23:10.404Z,101900.73
2018-08-19T00:24:14.602Z,101900.87
2018-08-19T00:25:32.418Z,101900.03
2018-08-19T00:26:36.876Z,101898.86
2018-08-19T00:27:41.112Z,101898.33
2018-08-19T00:28:45.327Z,101898.01
2018-08-19T00:29:50.381Z,101898.65
2018-08-19T00:30:54.760Z,101895.63
2018-08-19T00:31:59.147Z,101895.28
2018-08-19T00:33:03.891Z,101894.78
2018-08-19T00:34:08.128Z,101895.28
2018-08-19T00:35:12.568Z,101889.21
2018-08-19T00:36:27.089Z,101891.06
2018-08-19T00:37:31.324Z,101894.25
2018-08-19T00:38:35.619Z,101895.60
2018-08-19T00:39:39.791Z,101896.95
2018-08-19T00:40:44.343Z,101893.90
2018-08-19T00:41:48.567Z,101893.41
2018-08-19T00:42:52.803Z,101886.84
2018-08-19T00:43:56.989Z,101888.19
2018-08-19T00:45:01.370Z,101890.88
2018-08-19T00:46:18.843Z,101887.83
2018-08-19T00:47:23.028Z,101889.18
2018-08-19T00:48:27.311Z,101891.14
2018-08-19T00:49:31.815Z,101892.17
2018-08-19T00:50:36.068Z,101891.31
2018-08-19T00:51:44.459Z,101888.13
2018-08-19T00:52:48.675Z,101885.92
2018-08-19T00:53:52.950Z,101884.08
2018-08-19T00:54:57.167Z,101888.77
2018-08-19T00:56:01.926Z,101888.77
2018-08-19T00:57:07.924Z,101886.06
2018-08-19T00:58:19.549Z,101883.38
2018-08-19T00:59:24.518Z,101878.66
2018-08-19T01:00:29.640Z,101876.95
2018-08-19T01:01:36.087Z,101878.66
2018-08-19T01:02:40.511Z,101875.28
2018-08-19T01:03:52.585Z,101871.56
2018-08-19T01:04:57.079Z,101869.54
2018-08-19T01:06:01.408Z,101874.58
2018-08-19T01:07:06.071Z,101878.63
2018-08-19T01:08:11.191Z,101880.14
2018-08-19T01:09:15.367Z,101880.64
2018-08-19T01:10:19.643Z,101880.64
2018-08-19T01:11:34.081Z,101881.64
2018-08-19T01:12:38.328Z,101876.42
2018-08-19T01:13:42.721Z,101874.22
2018-08-19T01:14:47.029Z,101875.89
2018-08-19T01:15:51.439Z,101871.84
2018-08-19T01:16:55.666Z,101875.89
2018-08-19T01:17:59.909Z,101874.19
2018-08-19T01:19:04.135Z,101872.98
2018-08-19T01:20:09.285Z,101874.33
2018-08-19T01:21:13.590Z,101872.66
2018-08-19T01:22:17.784Z,101876.84
2018-08-19T01:23:22.003Z,101882.23
2018-08-19T01:24:26.207Z,101871.77
2018-08-19T01:25:30.515Z,101879.51
2018-08-19T01:26:36.581Z,101883.23
2018-08-19T01:27:41.043Z,101875.28
2018-08-19T01:28:45.227Z,101876.14
2018-08-19T01:29:49.588Z,101879.19
2018-08-19T01:30:53.763Z,101879.33
2018-08-19T01:32:01.280Z,101879.33
2018-08-19T01:33:05.602Z,101875.46
2018-08-19T01:34:14.920Z,101877.80
2018-08-19T01:35:21.991Z,101874.25
2018-08-19T01:36:28.611Z,101873.76
2018-08-19T01:37:32.858Z,101873.90
2018-08-19T01:38:37.014Z,101873.08
2018-08-19T01:39:41.195Z,101874.42
2018-08-19T01:40:45.350Z,101878.97
2018-08-19T01:41:49.496Z,101870.70
2018-08-19T01:42:53.703Z,101870.70
2018-08-19T01:44:07.354Z,101872.05
2018-08-19T01:45:11.775Z,101875.38
2018-08-19T01:46:16.147Z,101873.72
2018-08-19T01:47:20.740Z,101874.21
2018-08-19T01:48:25.138Z,101873.72
2018-08-19T01:49:29.272Z,101872.02
2018-08-19T01:50:33.550Z,101877.55
2018-08-19T01:51:38.894Z,101878.56
2018-08-19T01:52:44.056Z,101869.95
2018-08-19T01:53:48.360Z,101877.36
2018-08-19T01:54:52.547Z,101877.36
2018-08-19T01:55:56.702Z,101879.70
2018-08-19T01:57:01.915Z,101873.99
2018-08-19T01:58:06.392Z,101875.34
2018-08-19T01:59:10.877Z,101876.69
2018-08-19T02:00:15.683Z,101874.98
2018-08-19T02:01:19.886Z,101869.73
2018-08-19T02:02:24.274Z,101871.09
2018-08-19T02:03:28.552Z,101873.45
2018-08-19T02:04:35.003Z,101874.30
2018-08-19T02:05:39.385Z,101873.95
2018-08-19T02:06:44.624Z,101872.75
2018-08-19T02:07:51.258Z,101876.29
2018-08-19T02:08:55.583Z,101872.92
2018-08-19T02:10:01.961Z,101876.61
2018-08-19T02:11:17.658Z,101867.67
2018-08-19T02:12:21.887Z,101871.22
2018-08-19T02:13:26.062Z,101874.77
2018-08-19T02:14:30.311Z,101871.72
2018-08-19T02:15:34.536Z,101876.78
2018-08-19T02:16:38.886Z,101877.10
2018-08-19T02:17:47.207Z,101875.92
2018-08-19T02:18:51.375Z,101873.23
2018-08-19T02:19:55.748Z,101875.58
2018-08-19T02:20:59.999Z,101873.38
2018-08-19T02:22:04.378Z,101869.83
2018-08-19T02:23:12.381Z,101871.84
2018-08-19T02:24:17.254Z,101871.84
2018-08-19T02:25:21.450Z,101872.84
2018-08-19T02:26:29.517Z,101872.52
2018-08-19T02:27:34.035Z,101873.01
2018-08-19T02:28:38.208Z,101867.27
2018-08-19T02:29:42.379Z,101870.95
2018-08-19T02:30:52.733Z,101870.13
2018-08-19T02:31:59.262Z,101877.36
2018-08-19T02:33:04.248Z,101872.97
2018-08-19T02:34:08.461Z,101876.16
2018-08-19T02:35:14.095Z,101879.84
2018-08-19T02:36:18.358Z,101876.47
2018-08-19T02:37:22.747Z,101871.08
2018-08-19T02:38:26.968Z,101870.73
2018-08-19T02:39:31.464Z,101869.73
2018-08-19T02:40:35.669Z,101866.19
2018-08-19T02:41:41.927Z,101869.38
2018-08-19T02:42:46.391Z,101872.43
2018-08-19T02:43:58.144Z,101872.78
2018-08-19T02:45:04.535Z,101862.65
2018-08-19T02:46:08.799Z,101866.69
2018-08-19T02:47:13.083Z,101870.73
2018-08-19T02:48:17.349Z,101869.38
2018-08-19T02:49:21.497Z,101866.86
2018-08-19T02:50:25.670Z,101870.05
2018-08-19T02:51:29.943Z,101866.01
2018-08-19T02:52:36.779Z,101873.41
2018-08-19T02:53:41.744Z,101864.13
2018-08-19T02:54:45.944Z,101859.59
2018-08-19T02:55:50.141Z,101862.42
2018-08-19T02:56:54.580Z,101861.08
2018-08-19T02:58:04.031Z,101860.26
2018-08-19T02:59:08.270Z,101861.08
2018-08-19T03:00:12.992Z,101856.36
2018-08-19T03:01:17.983Z,101855.97
2018-08-19T03:02:30.210Z,101858.34
2018-08-19T03:03:34.405Z,101857.48
2018-08-19T03:04:38.652Z,101862.52
2018-08-19T03:05:47.076Z,101862.16
2018-08-19T03:06:51.283Z,101861.84
2018-08-19T03:07:56.019Z,101866.02
2018-08-19T03:09:00.565Z,101861.63
2018-08-19T03:10:12.902Z,101859.45
2018-08-19T03:11:19.179Z,101865.33
2018-08-19T03:12:23.588Z,101858.74
2018-08-19T03:13:27.803Z,101862.78
2018-08-19T03:14:32.000Z,101858.74
2018-08-19T03:15:36.199Z,101862.28
2018-08-19T03:16:40.415Z,101869.87
2018-08-19T03:17:47.319Z,101869.87
2018-08-19T03:18:52.871Z,101868.52
2018-08-19T03:19:58.082Z,101868.16
2018-08-19T03:21:02.622Z,101868.16
2018-08-19T03:22:06.766Z,101868.52
2018-08-19T03:23:11.959Z,101866.98
2018-08-19T03:24:16.135Z,101861.60
2018-08-19T03:25:20.466Z,101866.49
2018-08-19T03:26:24.715Z,101864.30
2018-08-19T03:27:29.239Z,101864.80
2018-08-19T03:28:33.416Z,101867.13
2018-08-19T03:29:43.077Z,101863.58
2018-08-19T03:30:50.763Z,101858.20
2018-08-19T03:32:01.627Z,101861.91
2018-08-19T03:33:05.859Z,101858.87
2018-08-19T03:34:10.044Z,101863.89
2018-08-19T03:35:16.254Z,101863.21
2018-08-19T03:36:20.452Z,101856.98
2018-08-19T03:37:24.660Z,101863.70
2018-08-19T03:38:29.395Z,101865.72
2018-08-19T03:39:33.594Z,101861.82
2018-08-19T03:40:37.768Z,101862.31
2018-08-19T03:41:42.082Z,101856.25
2018-08-19T03:42:46.304Z,101853.55
2018-08-19T03:43:54.632Z,101861.63
2018-08-19T03:45:04.504Z,101860.78
2018-08-19T03:46:12.854Z,101862.98
2018-08-19T03:47:20.963Z,101855.04
2018-08-19T03:48:25.183Z,101860.78
2018-08-19T03:49:29.391Z,101861.28
2018-08-19T03:50:37.776Z,101859.08
2018-08-19T03:51:42.123Z,101863.47
2018-08-19T03:52:46.371Z,101862.48
2018-08-19T03:53:50.657Z,101862.31
2018-08-19T03:54:54.860Z,101864.87
2018-08-19T03:55:59.023Z,101862.36
2018-08-19T03:57:03.342Z,101863.89
2018-08-19T03:58:08.758Z,101863.76
2018-08-19T03:59:13.162Z,101858.20
2018-08-19T04:00:18.768Z,101862.09
2018-08-19T04:01:33.924Z,101857.39
2018-08-19T04:02:38.121Z,101856.41
2018-08-19T04:03:42.274Z,101856.23
2018-08-19T04:04:46.736Z,101860.13
2018-08-19T04:05:56.403Z,101859.47
2018-08-19T04:07:00.620Z,101860.81
2018-08-19T04:08:05.051Z,101855.78
2018-08-19T04:09:09.266Z,101857.13
2018-08-19T04:10:13.789Z,101858.48
2018-08-19T04:11:17.962Z,101851.39
2018-08-19T04:12:22.175Z,101863.86
2018-08-19T04:13:34.647Z,101862.16
2018-08-19T04:14:39.215Z,101857.44
2018-08-19T04:15:43.456Z,101863.81
2018-08-19T04:16:47.624Z,101864.98
2018-08-19T04:17:51.840Z,101858.06
2018-08-19T04:19:10.500Z,101862.59
2018-08-19T04:20:14.655Z,101861.39
2018-08-19T04:21:18.963Z,101855.81
2018-08-19T04:22:23.142Z,101858.33
2018-08-19T04:23:27.737Z,101857.64
2018-08-19T04:24:32.614Z,101866.35
2018-08-19T04:25:36.800Z,101860.28
2018-08-19T04:26:40.997Z,101859.57
2018-08-19T04:27:45.279Z,101860.59
2018-08-19T04:28:49.478Z,101861.58
2018-08-19T04:29:53.662Z,101862.57
2018-08-19T04:31:00.073Z,101858.21
2018-08-19T04:32:05.275Z,101855.66
2018-08-19T04:33:09.599Z,101862.88
2018-08-19T04:34:13.838Z,101861.53
2018-08-19T04:35:18.060Z,101867.94
2018-08-19T04:36:23.363Z,101870.63
2018-08-19T04:37:27.911Z,101867.58
2018-08-19T04:38:32.054Z,101871.26
2018-08-19T04:39:36.401Z,101868.24
2018-08-19T04:40:40.629Z,101870.94
2018-08-19T04:41:44.834Z,101863.49
2018-08-19T04:42:49.240Z,101868.88
2018-08-19T04:43:54.886Z,101865.69
2018-08-19T04:44:59.091Z,101863.49
2018-08-19T04:46:03.346Z,101866.35
2018-08-19T04:47:21.535Z,101863.14
2018-08-19T04:48:27.203Z,101869.54
2018-08-19T04:49:33.772Z,101859.77
2018-08-19T04:50:38.036Z,101861.11
2018-08-19T04:51:42.307Z,101859.58
2018-08-19T04:52:46.459Z,101858.23
2018-08-19T04:53:50.960Z,101860.42
2018-08-19T04:54:56.289Z,101852.98
2018-08-19T04:56:00.578Z,101855.35
2018-08-19T04:57:04.955Z,101859.88
2018-08-19T04:58:09.128Z,101857.02
2018-08-19T04:59:13.562Z,101863.42
2018-08-19T05:00:17.745Z,101861.58
2018-08-19T05:01:21.901Z,101862.08
2018-08-19T05:02:26.277Z,101867.45
2018-08-19T05:03:30.433Z,101865.09
2018-08-19T05:04:34.623Z,101871.33
2018-08-19T05:05:39.462Z,101869.12
2018-08-19T05:06:43.792Z,101874.51
2018-08-19T05:07:47.958Z,101873.16
2018-08-19T05:08:52.343Z,101871.33
2018-08-19T05:09:56.541Z,101874.37
2018-08-19T05:11:00.925Z,101877.55
2018-08-19T05:12:05.139Z,101877.91
2018-08-19T05:13:09.947Z,101879.75
2018-08-19T05:14:14.282Z,101875.55
2018-08-19T05:15:18.617Z,101883.98
2018-08-19T05:16:22.906Z,101884.47
2018-08-19T05:17:27.157Z,101879.09
2018-08-19T05:18:31.315Z,101888.02
2018-08-19T05:19:35.475Z,101885.69
2018-08-19T05:20:39.723Z,101886.67
2018-08-19T05:21:43.886Z,101889.72
2018-08-19T05:22:48.115Z,101890.21
2018-08-19T05:23:52.280Z,101884.83
2018-08-19T05:24:56.627Z,101885.19
2018-08-19T05:26:00.901Z,101886.01
2018-08-19T05:27:06.815Z,101886.36
2018-08-19T05:28:10.989Z,101885.02
2018-08-19T05:29:16.261Z,101882.69
2018-08-19T05:30:20.548Z,101894.44
2018-08-19T05:31:24.757Z,101884.88
2018-08-19T05:32:29.104Z,101890.59
2018-08-19T05:33:33.291Z,101892.95
2018-08-19T05:34:37.546Z,101885.56
2018-08-19T05:35:41.740Z,101889.11
2018-08-19T05:36:48.993Z,101889.96
2018-08-19T05:37:53.353Z,101892.98
2018-08-19T05:38:57.635Z,101889.80
2018-08-19T05:40:01.784Z,101885.27
2018-08-19T05:41:07.325Z,101885.13
2018-08-19T05:42:12.682Z,101888.36
2018-08-19T05:43:16.838Z,101884.52
2018-08-19T05:44:21.109Z,101889.09
2018-08-19T05:45:25.347Z,101887.27
2018-08-19T05:46:29.739Z,101886.14
2018-08-19T05:47:33.971Z,101882.13
2018-08-19T05:48:38.130Z,101875.08
2018-08-19T05:49:43.472Z,101874.63
2018-08-19T05:50:47.726Z,101878.39
2018-08-19T05:51:51.911Z,101884.67
2018-08-19T05:52:56.138Z,101871.39
2018-08-19T05:54:00.369Z,101876.83
2018-08-19T05:55:04.524Z,101875.52
2018-08-19T05:56:08.891Z,101878.58
2018-08-19T05:57:13.362Z,101872.38
2018-08-19T05:58:17.891Z,101874.45
2018-08-19T05:59:22.325Z,101876.69
2018-08-19T06:00:27.843Z,101872.65
2018-08-19T06:01:32.038Z,101873.05
2018-08-19T06:02:41.440Z,101874.92
2018-08-19T06:03:45.692Z,101871.42
2018-08-19T06:04:50.246Z,101874.64
2018-08-19T06:05:54.490Z,101875.17
2018-08-19T06:07:02.841Z,101872.48
2018-08-19T06:08:11.552Z,101877.55
2018-08-19T06:09:16.115Z,101873.20
2018-08-19T06:10:20.513Z,101878.63
2018-08-19T06:11:24.857Z,101874.25
2018-08-19T06:12:29.039Z,101876.63
2018-08-19T06:13:33.267Z,101882.73
2018-08-19T06:14:37.440Z,101873.86
2018-08-19T06:15:41.935Z,101879.25
2018-08-19T06:16:46.122Z,101876.26
2018-08-19T06:17:50.357Z,101877.11
2018-08-19T06:18:54.755Z,101880.19
2018-08-19T06:19:59.483Z,101876.66
2018-08-19T06:21:03.695Z,101874.31
2018-08-19T06:22:08.044Z,101878.89
2018-08-19T06:23:12.192Z,101874.52
2018-08-19T06:25:19.476Z,101876.56
2018-08-19T06:26:28.062Z,101873.03
2018-08-19T06:27:36.720Z,101874.91
2018-08-19T06:28:41.150Z,101880.98
2018-08-19T06:29:48.145Z,101878.98
2018-08-19T06:30:52.461Z,101879.16
2018-08-19T06:31:56.635Z,101879.67
2018-08-19T06:33:00.838Z,101879.34
2018-08-19T06:34:05.041Z,101876.81
2018-08-19T06:35:09.684Z,101870.23
2018-08-19T06:36:13.894Z,101880.70
2018-08-19T06:37:18.796Z,101873.31
2018-08-19T06:38:23.001Z,101873.48
2018-08-19T06:39:27.237Z,101872.64
2018-08-19T06:40:31.607Z,101871.64
2018-08-19T06:41:35.782Z,101871.81
2018-08-19T06:42:40.028Z,101872.52
2018-08-19T06:43:44.269Z,101867.96
2018-08-19T06:44:48.512Z,101867.46
2018-08-19T06:45:52.698Z,101862.93
2018-08-19T06:46:57.246Z,101861.05
2018-08-19T06:48:01.647Z,101859.39
2018-08-19T06:49:11.059Z,101862.27
2018-08-19T06:50:22.881Z,101860.92
2018-08-19T06:51:27.090Z,101856.20
2018-08-19T06:52:31.356Z,101860.94
2018-08-19T06:53:35.584Z,101857.39
2018-08-19T06:54:40.018Z,101853.50
2018-08-19T06:55:44.238Z,101857.88
2018-08-19T06:56:48.622Z,101852.34
2018-08-19T06:57:53.432Z,101855.71
2018-08-19T06:58:57.855Z,101857.07
2018-08-19T07:00:02.204Z,101860.59
2018-08-19T07:01:06.390Z,101863.16
2018-08-19T07:02:10.658Z,101860.42
2018-08-19T07:03:14.871Z,101864.98
2018-08-19T07:04:19.027Z,101863.98
2018-08-19T07:05:23.227Z,101857.56
2018-08-19T07:06:27.479Z,101858.27
2018-08-19T07:07:31.787Z,101865.88
2018-08-19T07:08:36.007Z,101865.34
2018-08-19T07:09:40.955Z,101870.25
2018-08-19T07:10:45.131Z,101868.89
2018-08-19T07:11:59.950Z,101870.75
2018-08-19T07:13:09.612Z,101862.80
2018-08-19T07:14:13.902Z,101864.66
2018-08-19T07:15:18.078Z,101867.01
2018-08-19T07:16:22.291Z,101862.95
2018-08-19T07:17:26.558Z,101868.17
2018-08-19T07:18:31.621Z,101861.26
2018-08-19T07:19:37.196Z,101860.75
2018-08-19T07:20:42.286Z,101860.25
2018-08-19T07:21:48.966Z,101861.59
2018-08-19T07:22:53.127Z,101855.66
2018-08-19T07:23:57.333Z,101864.97
2018-08-19T07:25:01.728Z,101859.91
2018-08-19T07:26:06.339Z,101862.92
2018-08-19T07:27:10.996Z,101856.34
2018-08-19T07:28:16.796Z,101866.12
2018-08-19T07:29:21.080Z,101866.62
2018-08-19T07:30:25.326Z,101862.38
2018-08-19T07:31:29.511Z,101863.91
2018-08-19T07:32:33.723Z,101866.58
2018-08-19T07:33:37.939Z,101863.20
2018-08-19T07:34:42.190Z,101865.56
2018-08-19T07:35:46.419Z,101865.91
2018-08-19T07:36:50.712Z,101863.67
2018-08-19T07:37:54.826Z,101862.50
2018-08-19T07:38:58.989Z,101868.57
2018-08-19T07:40:03.236Z,101867.56
2018-08-19T07:41:07.446Z,101869.22
2018-08-19T07:42:11.825Z,101866.89
2018-08-19T07:43:16.155Z,101860.47
2018-08-19T07:44:20.434Z,101863.18
2018-08-19T07:45:24.980Z,101874.35
2018-08-19T07:46:29.591Z,101863.83
2018-08-19T07:47:33.774Z,101866.18
2018-08-19T07:48:38.002Z,101862.61
2018-08-19T07:49:42.169Z,101861.09
2018-08-19T07:50:46.364Z,101854.14
2018-08-19T07:51:50.628Z,101860.05
2018-08-19T07:52:55.209Z,101856.64
2018-08-19T07:53:59.436Z,101854.92
2018-08-19T07:55:03.923Z,101865.74
2018-08-19T07:56:08.158Z,101858.30
2018-08-19T07:57:21.461Z,101862.02
2018-08-19T07:58:36.914Z,101857.25
2018-08-19T07:59:41.760Z,101861.66
2018-08-19T08:00:45.943Z,101856.05
2018-08-19T08:01:50.139Z,101858.25
2018-08-19T08:02:54.480Z,101854.52
2018-08-19T08:03:58.675Z,101859.75
2018-08-19T08:05:02.961Z,101860.59
2018-08-19T08:06:07.287Z,101854.87
2018-08-19T08:07:12.408Z,101854.33
2018-08-19T08:08:16.732Z,101859.24
2018-08-19T08:09:20.987Z,101855.53
2018-08-19T08:10:25.631Z,101862.66
2018-08-19T08:11:30.372Z,101856.95
2018-08-19T08:12:34.578Z,101853.58
2018-08-19T08:13:38.777Z,101857.00
2018-08-19T08:14:48.377Z,101850.77
2018-08-19T08:15:54.835Z,101852.30
2018-08-19T08:16:59.111Z,101855.36
2018-08-19T08:18:03.320Z,101852.36
2018-08-19T08:19:07.737Z,101849.82
2018-08-19T08:20:12.106Z,101852.34
2018-08-19T08:21:16.384Z,101854.55
2018-08-19T08:22:21.063Z,101854.39
2018-08-19T08:23:27.085Z,101849.34
2018-08-19T08:24:31.694Z,101848.68
2018-08-19T08:25:36.138Z,101846.64
2018-08-19T08:26:47.464Z,101848.19
2018-08-19T08:27:51.861Z,101846.67
2018-08-19T08:29:01.273Z,101850.89
2018-08-19T08:30:09.304Z,101852.44
2018-08-19T08:31:13.713Z,101847.69
2018-08-19T08:32:17.951Z,101843.63
2018-08-19T08:33:22.191Z,101850.73
2018-08-19T08:34:28.082Z,101847.53
2018-08-19T08:35:32.777Z,101859.52
2018-08-19T08:36:37.116Z,101850.73
2018-08-19T08:37:42.151Z,101852.09
2018-08-19T08:38:46.359Z,101853.09
2018-08-19T08:39:55.735Z,101852.39
2018-08-19T08:41:00.060Z,101847.64
2018-08-19T08:42:04.572Z,101845.28
2018-08-19T08:43:08.903Z,101850.34
2018-08-19T08:44:13.311Z,101843.22
2018-08-19T08:45:21.715Z,101842.87
2018-08-19T08:46:25.946Z,101844.72
2018-08-19T08:47:31.963Z,101848.80
2018-08-19T08:49:44.760Z,101847.08
2018-08-19T08:50:49.111Z,101854.66
2018-08-19T08:51:53.431Z,101851.94
2018-08-19T08:52:57.667Z,101852.42
2018-08-19T08:54:01.891Z,101854.27
2018-08-19T08:55:08.550Z,101851.89
2018-08-19T08:56:13.403Z,101854.54
2018-08-19T08:57:18.543Z,101859.39
2018-08-19T08:58:23.016Z,101857.15
2018-08-19T08:59:27.231Z,101857.11
2018-08-19T09:00:31.475Z,101852.33
2018-08-19T09:01:35.680Z,101857.05
2018-08-19T09:02:39.929Z,101854.63
2018-08-19T09:03:44.224Z,101862.94
2018-08-19T09:04:49.034Z,101853.95
2018-08-19T09:05:53.247Z,101852.91
2018-08-19T09:06:57.582Z,101851.56
2018-08-19T09:08:01.881Z,101849.53
2018-08-19T09:09:08.309Z,101846.45
2018-08-19T09:10:13.651Z,101847.28
2018-08-19T09:11:18.539Z,101842.84
2018-08-19T09:12:33.807Z,101847.22
2018-08-19T09:13:38.003Z,101851.28
2018-08-19T09:14:42.792Z,101846.91
2018-08-19T09:15:47.427Z,101851.14
2018-08-19T09:16:51.641Z,101857.92
2018-08-19T09:17:55.896Z,101851.84
2018-08-19T09:19:00.086Z,101848.09
2018-08-19T09:20:05.275Z,101852.13
2018-08-19T09:21:09.604Z,101846.69
2018-08-19T09:22:13.779Z,101847.50
2018-08-19T09:23:18.253Z,101849.31
2018-08-19T09:24:22.405Z,101840.13
2018-08-19T09:25:26.532Z,101836.34
2018-08-19T09:26:30.687Z,101841.05
2018-08-19T09:27:35.346Z,101835.56
2018-08-19T09:28:39.522Z,101838.25
2018-08-19T09:29:43.832Z,101838.25
2018-08-19T09:30:48.143Z,101835.03
2018-08-19T09:31:52.324Z,101838.22
2018-08-19T09:32:59.877Z,101843.91
2018-08-19T09:34:04.067Z,101842.18
2018-08-19T09:35:08.270Z,101840.45
2018-08-19T09:36:12.513Z,101833.63
2018-08-19T09:37:16.821Z,101841.73
2018-08-19T09:38:22.006Z,101841.66
2018-08-19T09:39:26.255Z,101836.20
2018-08-19T09:40:30.857Z,101838.03
2018-08-19T09:41:35.076Z,101838.16
2018-08-19T09:42:39.232Z,101844.56
2018-08-19T09:43:43.485Z,101839.81
2018-08-19T09:44:47.647Z,101831.80
2018-08-19T09:45:51.836Z,101830.20
2018-08-19T09:46:56.199Z,101826.30
2018-08-19T09:48:00.787Z,101824.17
2018-08-19T09:49:04.747Z,101826.30
2018-08-19T09:50:09.167Z,101824.25
2018-08-19T09:51:15.395Z,101823.54
2018-08-19T09:52:19.604Z,101821.11
2018-08-19T09:53:23.888Z,101826.55
2018-08-19T09:54:35.407Z,101823.78
2018-08-19T09:55:39.603Z,101830.91
2018-08-19T09:56:43.984Z,101826.20
2018-08-19T09:57:53.458Z,101825.48
2018-08-19T09:59:03.674Z,101829.55
2018-08-19T10:00:07.837Z,101816.18
2018-08-19T10:01:14.934Z,101818.40
2018-08-19T10:02:19.282Z,101817.47
2018-08-19T10:03:23.549Z,101814.47
2018-08-19T10:04:27.970Z,101812.64
2018-08-19T10:05:34.283Z,101814.67
2018-08-19T10:06:38.527Z,101813.44
2018-08-19T10:07:42.773Z,101817.47
2018-08-19T10:08:46.930Z,101815.39
2018-08-19T10:09:51.238Z,101815.02
2018-08-19T10:10:55.387Z,101811.95
2018-08-19T10:11:59.920Z,101808.55
2018-08-19T10:13:04.506Z,101811.56
2018-08-19T10:14:08.829Z,101812.62
2018-08-19T10:15:13.185Z,101813.30
2018-08-19T10:16:17.599Z,101805.84
2018-08-19T10:17:21.777Z,101805.84
2018-08-19T10:18:26.224Z,101803.64
2018-08-19T10:19:30.403Z,101801.64
2018-08-19T10:20:34.594Z,101797.11
2018-08-19T10:21:38.788Z,101794.95
2018-08-19T10:22:43.705Z,101796.52
2018-08-19T10:23:47.943Z,101796.90
2018-08-19T10:24:52.259Z,101793.17
2018-08-19T10:25:56.464Z,101789.87
2018-08-19T10:27:00.978Z,101788.76
2018-08-19T10:28:05.181Z,101788.29
2018-08-19T10:29:09.593Z,101790.37
2018-08-19T10:30:14.020Z,101790.37
2018-08-19T10:31:18.685Z,101791.39
2018-08-19T10:32:22.852Z,101787.31
2018-08-19T10:33:27.237Z,101779.17
2018-08-19T10:34:34.501Z,101780.53
2018-08-19T10:35:38.747Z,101783.96
2018-08-19T10:36:43.348Z,101777.86
2018-08-19T10:37:47.899Z,101769.77
2018-08-19T10:38:52.254Z,101771.84
2018-08-19T10:39:56.447Z,101774.92
2018-08-19T10:41:05.478Z,101765.30
2018-08-19T10:42:21.483Z,101768.56
2018-08-19T10:43:27.988Z,101773.52
2018-08-19T10:44:32.136Z,101768.09
2018-08-19T10:45:39.172Z,101758.09
2018-08-19T10:46:43.909Z,101758.77
2018-08-19T10:47:48.082Z,101763.48
2018-08-19T10:48:52.308Z,101759.74
2018-08-19T10:50:10.718Z,101753.77
2018-08-19T10:51:14.915Z,101752.42
2018-08-19T10:52:23.240Z,101759.03
2018-08-19T10:53:28.482Z,101760.56
2018-08-19T10:54:32.716Z,101756.48
2018-08-19T10:55:36.900Z,101755.98
2018-08-19T10:56:41.116Z,101754.63
2018-08-19T10:57:45.325Z,101753.60
2018-08-19T10:58:53.512Z,101752.89
2018-08-19T10:59:58.907Z,101750.17
2018-08-19T11:01:03.096Z,101754.24
2018-08-19T11:02:07.351Z,101753.73
2018-08-19T11:03:16.614Z,101756.45
2018-08-19T11:04:20.888Z,101755.94
2018-08-19T11:05:25.093Z,101753.56
2018-08-19T11:06:29.315Z,101764.03
2018-08-19T11:07:33.607Z,101761.63
2018-08-19T11:08:42.011Z,101753.82
2018-08-19T11:09:57.786Z,101750.94
2018-08-19T11:11:01.948Z,101749.58
2018-08-19T11:12:06.487Z,101750.09
2018-08-19T11:13:10.722Z,101748.39
2018-08-19T11:14:14.896Z,101745.04
2018-08-19T11:15:30.719Z,101747.55
2018-08-19T11:16:34.906Z,101743.48
2018-08-19T11:17:39.116Z,101745.34
2018-08-19T11:18:46.789Z,101738.90
2018-08-19T11:19:51.076Z,101736.19
2018-08-19T11:20:58.070Z,101741.09
2018-08-19T11:22:02.227Z,101736.31
2018-08-19T11:23:10.599Z,101736.65
2018-08-19T11:24:19.701Z,101733.77
2018-08-19T11:25:27.081Z,101730.00
2018-08-19T11:26:31.314Z,101726.77
2018-08-19T11:27:35.444Z,101729.31
2018-08-19T11:28:52.747Z,101723.88
2018-08-19T11:29:56.956Z,101732.33
2018-08-19T11:31:01.141Z,101735.37
2018-08-19T11:32:05.615Z,101731.64
2018-08-19T11:33:09.837Z,101724.14
2018-08-19T11:34:14.020Z,101720.06
2018-08-19T11:35:18.265Z,101725.49
2018-08-19T11:36:28.211Z,101721.76
2018-08-19T11:37:32.384Z,101716.67
2018-08-19T11:38:36.950Z,101711.54
2018-08-19T11:39:44.638Z,101714.59
2018-08-19T11:40:48.985Z,101717.64
2018-08-19T11:41:53.131Z,101717.43
2018-08-19T11:42:57.371Z,101719.97
2018-08-19T11:44:08.881Z,101718.61
2018-08-19T11:45:13.085Z,101710.64
2018-08-19T11:46:17.313Z,101717.25
2018-08-19T11:47:21.572Z,101713.02
2018-08-19T11:48:25.893Z,101717.64
2018-08-19T11:49:30.047Z,101717.09
2018-08-19T11:50:34.260Z,101720.14
2018-08-19T11:51:47.531Z,101720.14
2018-08-19T11:52:55.996Z,101718.28
2018-08-19T11:54:00.249Z,101727.05
2018-08-19T11:55:04.547Z,101716.20
2018-08-19T11:56:08.788Z,101716.87
2018-08-19T11:57:13.463Z,101716.87
2018-08-19T11:58:33.632Z,101708.73
2018-08-19T11:59:46.247Z,101707.38
2018-08-19T12:00:55.752Z,101709.03
2018-08-19T12:02:00.243Z,101706.65
2018-08-19T12:03:04.408Z,101711.56
2018-08-19T12:04:10.743Z,101707.50
2018-08-19T12:05:14.948Z,101706.14
2018-08-19T12:06:19.419Z,101706.47
2018-08-19T12:07:23.772Z,101709.48
2018-08-19T12:08:27.974Z,101706.27
2018-08-19T12:09:32.172Z,101701.68
2018-08-19T12:10:36.298Z,101698.79
2018-08-19T12:11:41.573Z,101698.06
2018-08-19T12:12:47.931Z,101699.76
2018-08-19T12:13:53.300Z,101700.06
2018-08-19T12:14:57.609Z,101697.68
2018-08-19T12:16:01.952Z,101690.89
2018-08-19T12:17:08.857Z,101696.32
2018-08-19T12:18:13.091Z,101691.73
2018-08-19T12:19:22.764Z,101695.30
2018-08-19T12:20:34.079Z,101690.50
2018-08-19T12:21:44.175Z,101690.50
2018-08-19T12:22:48.347Z,101690.84
2018-08-19T12:24:06.683Z,101687.61
2018-08-19T12:25:10.874Z,101687.40
2018-08-19T12:26:15.090Z,101684.80
2018-08-19T12:27:22.233Z,101683.81